createdAt,value
2023-05-14T00:00:02.450Z,99527.29
2023-05-14T00:02:50.486Z,99523.14
2023-05-14T00:05:18.448Z,99521.81
2023-05-14T00:07:46.299Z,99523.45
2023-05-14T00:10:14.362Z,99515.42
2023-05-14T00:12:42.392Z,99515.80
2023-05-14T00:15:10.388Z,99518.63
2023-05-14T00:17:38.414Z,99518.67
2023-05-14T00:20:12.083Z,99519.02
2023-05-14T00:22:40.178Z,99521.51
2023-05-14T00:25:09.294Z,99518.59
2023-05-14T00:27:40.024Z,99515.28
2023-05-14T00:30:08.369Z,99516.13
2023-05-14T00:32:36.340Z,99516.38
2023-05-14T00:35:04.586Z,99516.14
2023-05-14T00:37:32.632Z,99509.55
2023-05-14T00:40:00.508Z,99510.56
2023-05-14T00:42:28.520Z,99501.26
2023-05-14T00:44:56.432Z,99501.42
2023-05-14T00:47:24.377Z,99502.28
2023-05-14T00:49:52.504Z,99500.48
2023-05-14T00:52:20.722Z,99499.94
2023-05-14T00:54:49.393Z,99499.50
2023-05-14T00:57:18.995Z,99495.85
2023-05-14T00:59:47.231Z,99496.55
2023-05-14T01:02:15.127Z,99496.71
2023-05-14T01:04:43.228Z,99496.15
2023-05-14T01:07:25.934Z,99497.85
2023-05-14T01:10:13.694Z,99499.94
2023-05-14T01:12:48.493Z,99500.27
2023-05-14T01:15:23.908Z,99499.32
2023-05-14T01:17:59.182Z,99498.88
2023-05-14T01:20:27.436Z,99495.27
2023-05-14T01:22:55.503Z,99493.79
2023-05-14T01:25:23.454Z,99492.58
2023-05-14T01:28:25.294Z,99491.04
2023-05-14T01:31:12.126Z,99492.85
2023-05-14T01:33:42.461Z,99489.40
2023-05-14T01:36:11.103Z,99486.98
2023-05-14T01:38:39.936Z,99488.44
2023-05-14T01:41:08.297Z,99486.40
2023-05-14T01:43:37.432Z,99489.95
2023-05-14T01:46:05.670Z,99493.48
2023-05-14T01:48:33.649Z,99493.73
2023-05-14T01:51:02.651Z,99496.11
2023-05-14T01:53:30.746Z,99492.70
2023-05-14T01:55:58.683Z,99490.92
2023-05-14T01:58:26.682Z,99487.73
2023-05-14T02:00:54.623Z,99486.60
2023-05-14T02:03:22.707Z,99484.22
2023-05-14T02:05:51.236Z,99481.31
2023-05-14T02:08:19.290Z,99478.77
2023-05-14T02:10:47.163Z,99474.67
2023-05-14T02:13:15.112Z,99472.66
2023-05-14T02:15:43.074Z,99475.52
2023-05-14T02:18:11.051Z,99473.48
2023-05-14T02:20:39.181Z,99477.42
2023-05-14T02:23:07.224Z,99473.66
2023-05-14T02:25:35.352Z,99470.64
2023-05-14T02:28:03.451Z,99472.27
2023-05-14T02:30:31.572Z,99474.79
2023-05-14T02:32:59.613Z,99473.95
2023-05-14T02:35:27.632Z,99474.02
2023-05-14T02:37:56.265Z,99472.77
2023-05-14T02:40:24.476Z,99472.23
2023-05-14T02:42:52.685Z,99473.23
2023-05-14T02:45:21.652Z,99471.39
2023-05-14T02:47:49.616Z,99467.11
2023-05-14T02:50:17.762Z,99471.18
2023-05-14T02:52:45.660Z,99469.23
2023-05-14T02:55:13.570Z,99468.89
2023-05-14T02:57:41.543Z,99468.69
2023-05-14T03:00:10.194Z,99466.55
2023-05-14T03:02:38.950Z,99464.27
2023-05-14T03:05:07.718Z,99463.72
2023-05-14T03:07:35.768Z,99465.08
2023-05-14T03:10:04.231Z,99460.15
2023-05-14T03:12:32.149Z,99464.48
2023-05-14T03:15:00.121Z,99461.69
2023-05-14T03:17:28.119Z,99462.75
2023-05-14T03:19:56.080Z,99465.33
2023-05-14T03:22:24.042Z,99468.79
2023-05-14T03:24:52.428Z,99470.47
2023-05-14T03:27:20.863Z,99463.11
2023-05-14T03:29:48.833Z,99461.69
2023-05-14T03:32:18.160Z,99465.52
2023-05-14T03:34:46.110Z,99466.47
2023-05-14T03:37:14.112Z,99463.77
2023-05-14T03:39:42.125Z,99461.04
2023-05-14T03:42:10.093Z,99456.39
2023-05-14T03:44:38.350Z,99456.77
2023-05-14T03:47:06.334Z,99459.67
2023-05-14T03:49:34.235Z,99460.30
2023-05-14T03:52:02.169Z,99458.48
2023-05-14T03:54:30.247Z,99456.10
2023-05-14T03:56:58.123Z,99453.75
2023-05-14T03:59:26.073Z,99446.42
2023-05-14T04:01:54.911Z,99445.44
2023-05-14T04:04:22.923Z,99444.04
2023-05-14T04:06:51.026Z,99444.41
2023-05-14T04:09:18.929Z,99447.70
2023-05-14T04:11:47.004Z,99443.42
2023-05-14T04:14:15.041Z,99442.66
2023-05-14T04:16:44.147Z,99439.53
2023-05-14T04:19:12.388Z,99437.02
2023-05-14T04:21:40.507Z,99439.27
2023-05-14T04:24:08.592Z,99441.57
2023-05-14T04:26:36.599Z,99442.77
2023-05-14T04:29:04.564Z,99439.88
2023-05-14T04:31:32.514Z,99430.84
2023-05-14T04:34:00.502Z,99431.76
2023-05-14T04:36:28.520Z,99432.52
2023-05-14T04:38:56.659Z,99429.99
2023-05-14T04:41:24.608Z,99433.46
2023-05-14T04:43:56.261Z,99433.39
2023-05-14T04:46:24.229Z,99431.78
2023-05-14T04:48:52.242Z,99427.02
2023-05-14T04:51:20.105Z,99423.23
2023-05-14T04:53:47.987Z,99422.45
2023-05-14T04:56:15.929Z,99423.19
2023-05-14T04:58:43.851Z,99418.95
2023-05-14T05:01:11.835Z,99415.82
2023-05-14T05:03:39.832Z,99412.55
2023-05-14T05:06:07.933Z,99413.23
2023-05-14T05:08:36.543Z,99414.33
2023-05-14T05:11:05.107Z,99420.42
2023-05-14T05:13:33.090Z,99418.23
2023-05-14T05:16:01.146Z,99418.39
2023-05-14T05:18:29.180Z,99414.23
2023-05-14T05:20:57.089Z,99408.75
2023-05-14T05:23:24.981Z,99405.70
2023-05-14T05:25:52.898Z,99404.17
2023-05-14T05:28:20.844Z,99401.89
2023-05-14T05:30:48.872Z,99403.66
2023-05-14T05:33:16.996Z,99404.33
2023-05-14T05:35:44.923Z,99398.58
2023-05-14T05:38:12.962Z,99396.14
2023-05-14T05:40:41.055Z,99389.56
2023-05-14T05:43:09.016Z,99385.44
2023-05-14T05:45:36.931Z,99386.27
2023-05-14T05:48:05.645Z,99383.58
2023-05-14T05:50:33.798Z,99375.98
2023-05-14T05:53:01.951Z,99378.01
2023-05-14T05:55:30.051Z,99377.32
2023-05-14T05:57:58.141Z,99374.62
2023-05-14T06:00:26.224Z,99378.61
2023-05-14T06:02:54.355Z,99377.80
2023-05-14T06:05:22.345Z,99382.07
2023-05-14T06:07:50.575Z,99382.09
2023-05-14T06:10:19.100Z,99380.82
2023-05-14T06:12:47.148Z,99383.54
2023-05-14T06:15:15.341Z,99380.62
2023-05-14T06:17:43.334Z,99372.52
2023-05-14T06:20:11.856Z,99371.01
2023-05-14T06:22:39.843Z,99370.87
2023-05-14T06:25:08.312Z,99368.25
2023-05-14T06:27:36.277Z,99368.17
2023-05-14T06:30:04.623Z,99370.45
2023-05-14T06:32:32.722Z,99368.31
2023-05-14T06:35:00.776Z,99369.50
2023-05-14T06:37:28.691Z,99367.23
2023-05-14T06:39:57.879Z,99369.16
2023-05-14T06:42:26.578Z,99373.83
2023-05-14T06:44:54.804Z,99373.71
2023-05-14T06:47:22.800Z,99378.00
2023-05-14T06:49:50.748Z,99373.56
2023-05-14T06:52:18.668Z,99368.79
2023-05-14T06:54:46.516Z,99365.70
2023-05-14T06:57:14.462Z,99361.97
2023-05-14T06:59:42.693Z,99357.20
2023-05-14T07:02:10.749Z,99358.26
2023-05-14T07:04:38.813Z,99354.90
2023-05-14T07:07:06.830Z,99356.58
2023-05-14T07:09:34.707Z,99355.78
2023-05-14T07:12:02.696Z,99357.15
2023-05-14T07:14:30.567Z,99352.13
2023-05-14T07:16:58.517Z,99348.09
2023-05-14T07:19:28.789Z,99350.03
2023-05-14T07:21:57.656Z,99351.50
2023-05-14T07:24:25.555Z,99352.02
2023-05-14T07:26:54.731Z,99349.49
2023-05-14T07:29:23.055Z,99348.67
2023-05-14T07:31:51.681Z,99349.60
2023-05-14T07:34:19.706Z,99348.86
2023-05-14T07:36:47.903Z,99347.53
2023-05-14T07:39:15.966Z,99346.02
2023-05-14T07:41:44.360Z,99350.57
2023-05-14T07:44:12.422Z,99348.02
2023-05-14T07:46:41.078Z,99345.88
2023-05-14T07:49:08.990Z,99346.30
2023-05-14T07:51:36.866Z,99344.23
2023-05-14T07:54:05.025Z,99343.61
2023-05-14T07:56:32.956Z,99340.41
2023-05-14T07:59:01.023Z,99342.34
2023-05-14T08:01:28.932Z,99346.66
2023-05-14T08:03:56.996Z,99345.04
2023-05-14T08:06:27.584Z,99341.75
2023-05-14T08:08:55.625Z,99339.89
2023-05-14T08:11:23.622Z,99339.27
2023-05-14T08:13:51.630Z,99337.41
2023-05-14T08:16:19.740Z,99336.31
2023-05-14T08:18:48.579Z,99330.27
2023-05-14T08:21:16.959Z,99330.60
2023-05-14T08:23:44.963Z,99326.89
2023-05-14T08:26:12.933Z,99325.36
2023-05-14T08:28:40.768Z,99321.30
2023-05-14T08:31:08.826Z,99318.52
2023-05-14T08:33:36.786Z,99318.05
2023-05-14T08:36:05.039Z,99315.44
2023-05-14T08:38:33.455Z,99314.95
2023-05-14T08:41:01.579Z,99312.48
2023-05-14T08:43:44.832Z,99309.72
2023-05-14T08:46:15.187Z,99312.91
2023-05-14T08:48:43.581Z,99306.05
2023-05-14T08:51:12.160Z,99310.33
2023-05-14T08:53:40.706Z,99309.46
2023-05-14T08:56:09.525Z,99308.89
2023-05-14T08:58:37.551Z,99307.81
2023-05-14T09:01:05.779Z,99309.44
2023-05-14T09:03:34.925Z,99307.63
2023-05-14T09:06:04.016Z,99307.23
2023-05-14T09:08:32.029Z,99305.64
2023-05-14T09:10:59.973Z,99307.12
2023-05-14T09:13:28.415Z,99306.76
2023-05-14T09:15:57.443Z,99302.18
2023-05-14T09:18:25.715Z,99302.19
2023-05-14T09:20:53.811Z,99294.64
2023-05-14T09:23:21.753Z,99287.58
2023-05-14T09:25:49.724Z,99279.90
2023-05-14T09:28:19.095Z,99274.52
2023-05-14T09:30:51.646Z,99270.34
2023-05-14T09:33:28.353Z,99268.05
2023-05-14T09:36:00.308Z,99263.80
2023-05-14T09:38:29.904Z,99258.51
2023-05-14T09:40:59.222Z,99253.83
2023-05-14T09:43:27.271Z,99251.59
2023-05-14T09:45:55.340Z,99248.48
2023-05-14T09:48:24.329Z,99245.77
2023-05-14T09:50:52.371Z,99240.17
2023-05-14T09:53:20.459Z,99234.56
2023-05-14T09:55:49.371Z,99232.75
2023-05-14T09:58:17.366Z,99229.89
2023-05-14T10:00:46.932Z,99229.94
2023-05-14T10:03:17.954Z,99222.38
2023-05-14T10:05:49.399Z,99220.41
2023-05-14T10:08:26.795Z,99216.45
2023-05-14T10:10:56.110Z,99212.00
2023-05-14T10:13:28.877Z,99210.73
2023-05-14T10:16:09.583Z,99212.00
2023-05-14T10:18:48.460Z,99209.44
2023-05-14T10:21:21.760Z,99209.86
2023-05-14T10:23:50.717Z,99206.54
2023-05-14T10:26:18.753Z,99209.05
2023-05-14T10:28:46.971Z,99203.45
2023-05-14T10:31:15.023Z,99201.30
2023-05-14T10:33:48.195Z,99204.20
2023-05-14T10:36:17.926Z,99202.50
2023-05-14T10:38:47.046Z,99201.33
2023-05-14T10:41:18.056Z,99195.73
2023-05-14T10:43:46.103Z,99185.30
2023-05-14T10:46:14.809Z,99179.23
2023-05-14T10:48:44.257Z,99182.37
2023-05-14T10:51:12.685Z,99180.08
2023-05-14T10:53:42.823Z,99181.04
2023-05-14T10:56:14.666Z,99181.41
2023-05-14T10:58:44.786Z,99178.31
2023-05-14T11:01:13.780Z,99175.17
2023-05-14T11:03:43.880Z,99176.87
2023-05-14T11:06:13.957Z,99179.08
2023-05-14T11:08:42.702Z,99168.97
2023-05-14T11:11:11.020Z,99160.41
2023-05-14T11:13:39.104Z,99163.63
2023-05-14T11:16:21.873Z,99164.52
2023-05-14T11:19:03.490Z,99159.84
2023-05-14T11:21:32.925Z,99152.60
2023-05-14T11:24:01.631Z,99150.40
2023-05-14T11:26:29.643Z,99150.14
2023-05-14T11:28:57.841Z,99150.31
2023-05-14T11:31:25.842Z,99148.42
2023-05-14T11:33:55.287Z,99148.06
2023-05-14T11:36:23.283Z,99148.16
2023-05-14T11:38:52.550Z,99154.35
2023-05-14T11:41:22.911Z,99151.69
2023-05-14T11:43:51.166Z,99149.04
2023-05-14T11:46:19.236Z,99143.86
2023-05-14T11:48:47.424Z,99141.73
2023-05-14T11:51:15.390Z,99144.38
2023-05-14T11:53:43.274Z,99139.36
2023-05-14T11:56:11.454Z,99137.67
2023-05-14T11:58:39.779Z,99130.45
2023-05-14T12:01:13.325Z,99130.17
2023-05-14T12:03:42.258Z,99125.26
2023-05-14T12:06:10.588Z,99129.02
2023-05-14T12:08:38.478Z,99131.94
2023-05-14T12:11:07.050Z,99130.69
2023-05-14T12:13:36.631Z,99130.69
2023-05-14T12:16:05.398Z,99127.46
2023-05-14T12:18:33.834Z,99124.10
2023-05-14T12:21:07.947Z,99121.70
2023-05-14T12:23:38.454Z,99116.98
2023-05-14T12:26:08.285Z,99112.10
2023-05-14T12:28:43.394Z,99112.96
2023-05-14T12:31:11.674Z,99113.96
2023-05-14T12:33:39.624Z,99114.09
2023-05-14T12:36:20.273Z,99113.01
2023-05-14T12:38:50.885Z,99106.84
2023-05-14T12:41:18.876Z,99100.19
2023-05-14T12:43:48.203Z,99097.19
2023-05-14T12:46:17.192Z,99095.67
2023-05-14T12:48:45.403Z,99090.96
2023-05-14T12:51:13.431Z,99090.67
2023-05-14T12:53:41.612Z,99088.05
2023-05-14T12:56:09.760Z,99082.79
2023-05-14T12:58:38.487Z,99076.27
2023-05-14T13:01:06.840Z,99075.60
2023-05-14T13:03:34.809Z,99068.14
2023-05-14T13:06:02.885Z,99064.73
2023-05-14T13:08:31.003Z,99061.83
2023-05-14T13:10:58.976Z,99066.24
2023-05-14T13:13:27.071Z,99064.75
2023-05-14T13:15:55.596Z,99063.95
2023-05-14T13:18:23.561Z,99066.13
2023-05-14T13:20:51.866Z,99059.37
2023-05-14T13:23:19.778Z,99054.09
2023-05-14T13:25:49.760Z,99051.52
2023-05-14T13:28:17.961Z,99054.50
2023-05-14T13:31:05.521Z,99053.68
2023-05-14T13:33:36.069Z,99049.16
2023-05-14T13:36:04.821Z,99046.98
2023-05-14T13:38:32.845Z,99045.86
2023-05-14T13:41:04.230Z,99042.23
2023-05-14T13:43:35.966Z,99040.40
2023-05-14T13:46:06.049Z,99037.16
2023-05-14T13:48:34.585Z,99035.48
2023-05-14T13:51:02.854Z,99035.86
2023-05-14T13:53:30.854Z,99026.51
2023-05-14T13:56:00.953Z,99027.08
2023-05-14T13:58:29.051Z,99023.45
2023-05-14T14:00:57.116Z,99029.31
2023-05-14T14:03:25.337Z,99032.73
2023-05-14T14:05:53.487Z,99023.39
2023-05-14T14:08:24.351Z,99020.63
2023-05-14T14:10:54.517Z,99022.45
2023-05-14T14:13:22.987Z,99018.02
2023-05-14T14:15:51.315Z,99014.63
2023-05-14T14:18:19.428Z,99007.23
2023-05-14T14:20:47.695Z,99004.88
2023-05-14T14:23:15.644Z,99006.51
2023-05-14T14:25:43.764Z,99007.42
2023-05-14T14:28:11.660Z,99000.83
2023-05-14T14:30:39.681Z,98998.66
2023-05-14T14:33:07.714Z,98998.73
2023-05-14T14:35:36.434Z,98997.63
2023-05-14T14:38:04.485Z,98996.48
2023-05-14T14:40:35.191Z,98993.57
2023-05-14T14:43:03.107Z,98993.07
2023-05-14T14:45:31.151Z,98993.99
2023-05-14T14:48:37.706Z,98996.95
2023-05-14T14:51:06.793Z,98990.79
2023-05-14T14:53:35.845Z,98988.41
2023-05-14T14:56:04.501Z,98987.43
2023-05-14T14:58:32.776Z,98978.86
2023-05-14T15:01:01.450Z,98975.08
2023-05-14T15:03:29.596Z,98975.11
2023-05-14T15:05:57.633Z,98971.17
2023-05-14T15:08:27.565Z,98969.92
2023-05-14T15:10:59.469Z,98970.22
2023-05-14T15:13:28.319Z,98967.11
2023-05-14T15:15:56.292Z,98961.17
2023-05-14T15:18:24.180Z,98958.04
2023-05-14T15:20:52.871Z,98959.09
2023-05-14T15:23:20.939Z,98960.50
2023-05-14T15:25:49.490Z,98958.10
2023-05-14T15:28:17.735Z,98958.73
2023-05-14T15:30:47.694Z,98962.59
2023-05-14T15:33:19.352Z,98961.20
2023-05-14T15:35:47.465Z,98962.38
2023-05-14T15:38:15.556Z,98961.08
2023-05-14T15:40:43.614Z,98959.21
2023-05-14T15:43:11.502Z,98966.48
2023-05-14T15:45:39.442Z,98968.38
2023-05-14T15:48:07.349Z,98967.30
2023-05-14T15:50:35.314Z,98967.18
2023-05-14T15:53:03.232Z,98971.17
2023-05-14T15:55:31.995Z,98970.56
2023-05-14T15:58:00.067Z,98968.36
2023-05-14T16:00:28.038Z,98967.27
2023-05-14T16:02:56.452Z,98969.77
2023-05-14T16:05:24.530Z,98968.92
2023-05-14T16:07:52.529Z,98964.84
2023-05-14T16:10:21.525Z,98968.06
2023-05-14T16:12:49.677Z,98965.27
2023-05-14T16:15:17.656Z,98964.16
2023-05-14T16:17:45.885Z,98961.00
2023-05-14T16:20:15.520Z,98956.86
2023-05-14T16:22:43.579Z,98956.06
2023-05-14T16:25:11.447Z,98954.14
2023-05-14T16:27:39.522Z,98952.24
2023-05-14T16:30:08.023Z,98947.23
2023-05-14T16:32:36.873Z,98947.66
2023-05-14T16:35:05.740Z,98945.92
2023-05-14T16:37:33.797Z,98945.71
2023-05-14T16:40:01.796Z,98942.35
2023-05-14T16:42:29.795Z,98944.64
2023-05-14T16:44:57.718Z,98943.27
2023-05-14T16:47:25.628Z,98945.59
2023-05-14T16:49:53.638Z,98946.20
2023-05-14T16:52:21.712Z,98947.30
2023-05-14T16:54:49.667Z,98951.40
2023-05-14T16:57:17.636Z,98951.90
2023-05-14T16:59:46.411Z,98952.61
2023-05-14T17:02:14.556Z,98946.98
2023-05-14T17:04:43.316Z,98939.27
2023-05-14T17:07:11.620Z,98940.81
2023-05-14T17:09:39.525Z,98941.70
2023-05-14T17:12:07.851Z,98940.16
2023-05-14T17:14:35.968Z,98935.98
2023-05-14T17:17:04.074Z,98935.46
2023-05-14T17:19:32.112Z,98931.63
2023-05-14T17:22:00.161Z,98937.45
2023-05-14T17:24:28.085Z,98937.31
2023-05-14T17:26:55.971Z,98940.02
2023-05-14T17:29:23.859Z,98942.27
2023-05-14T17:31:52.140Z,98943.14
2023-05-14T17:34:20.276Z,98942.45
2023-05-14T17:36:48.395Z,98938.73
2023-05-14T17:39:16.436Z,98934.86
2023-05-14T17:41:44.458Z,98931.04
2023-05-14T17:44:13.209Z,98923.40
2023-05-14T17:46:42.398Z,98926.23
2023-05-14T17:49:11.862Z,98926.42
2023-05-14T17:51:40.041Z,98935.13
2023-05-14T17:54:07.922Z,98939.27
2023-05-14T17:56:35.960Z,98937.50
2023-05-14T17:59:04.179Z,98935.50
2023-05-14T18:01:32.174Z,98932.16
2023-05-14T18:04:00.349Z,98936.30
2023-05-14T18:06:28.405Z,98939.94
2023-05-14T18:08:56.369Z,98934.64
2023-05-14T18:11:24.421Z,98931.17
2023-05-14T18:13:52.383Z,98930.61
2023-05-14T18:16:20.358Z,98928.59
2023-05-14T18:18:48.330Z,98927.73
2023-05-14T18:21:16.321Z,98926.34
2023-05-14T18:23:44.590Z,98926.20
2023-05-14T18:26:12.603Z,98921.55
2023-05-14T18:28:40.778Z,98920.17
2023-05-14T18:31:08.805Z,98919.80
2023-05-14T18:33:37.161Z,98921.02
2023-05-14T18:36:05.334Z,98923.68
2023-05-14T18:38:33.395Z,98924.80
2023-05-14T18:41:01.440Z,98924.56
2023-05-14T18:43:29.355Z,98926.21
2023-05-14T18:45:57.429Z,98925.76
2023-05-14T18:48:26.405Z,98926.34
2023-05-14T18:50:54.443Z,98922.34
2023-05-14T18:53:22.367Z,98925.17
2023-05-14T18:55:50.468Z,98924.77
2023-05-14T18:58:18.456Z,98921.51
2023-05-14T19:00:46.538Z,98920.34
2023-05-14T19:03:14.683Z,98920.09
2023-05-14T19:05:42.720Z,98923.52
2023-05-14T19:08:10.928Z,98924.48
2023-05-14T19:10:38.810Z,98925.48
2023-05-14T19:13:07.033Z,98919.93
2023-05-14T19:15:35.106Z,98913.29
2023-05-14T19:18:03.314Z,98909.02
2023-05-14T19:20:31.362Z,98912.56
2023-05-14T19:23:01.632Z,98916.80
2023-05-14T19:25:29.793Z,98918.61
2023-05-14T19:27:57.926Z,98914.40
2023-05-14T19:30:25.787Z,98911.88
2023-05-14T19:32:53.879Z,98908.68
2023-05-14T19:35:22.137Z,98908.80
2023-05-14T19:37:50.220Z,98902.88
2023-05-14T19:40:18.704Z,98909.23
2023-05-14T19:42:46.745Z,98904.96
2023-05-14T19:45:14.830Z,98897.32
2023-05-14T19:47:43.024Z,98898.82
2023-05-14T19:50:11.474Z,98900.20
2023-05-14T19:52:39.410Z,98896.59
2023-05-14T19:55:07.650Z,98899.61
2023-05-14T19:57:35.651Z,98898.94
2023-05-14T20:00:04.617Z,98893.72
2023-05-14T20:02:40.814Z,98890.45
2023-05-14T20:05:09.425Z,98885.60
2023-05-14T20:07:39.594Z,98886.30
2023-05-14T20:10:08.781Z,98883.83
2023-05-14T20:12:36.726Z,98878.23
2023-05-14T20:15:05.156Z,98871.53
2023-05-14T20:17:33.109Z,98864.41
2023-05-14T20:20:01.496Z,98863.91
2023-05-14T20:22:29.446Z,98863.10
2023-05-14T20:24:57.650Z,98856.41
2023-05-14T20:27:25.728Z,98851.67
2023-05-14T20:29:54.213Z,98850.52
2023-05-14T20:32:25.087Z,98846.59
2023-05-14T20:34:53.255Z,98844.91
2023-05-14T20:37:21.642Z,98839.48
2023-05-14T20:39:49.607Z,98835.85
2023-05-14T20:42:17.743Z,98831.90
2023-05-14T20:44:45.710Z,98830.08
2023-05-14T20:47:16.471Z,98825.20
2023-05-14T20:49:44.465Z,98819.59
2023-05-14T20:52:13.397Z,98812.67
2023-05-14T20:54:42.249Z,98805.23
2023-05-14T20:57:11.811Z,98799.13
2023-05-14T20:59:39.690Z,98793.91
2023-05-14T21:02:08.146Z,98789.73
2023-05-14T21:04:36.420Z,98783.52
2023-05-14T21:07:05.275Z,98784.82
2023-05-14T21:09:33.278Z,98785.23
2023-05-14T21:12:01.259Z,98782.89
2023-05-14T21:14:29.117Z,98784.98
2023-05-14T21:16:57.070Z,98781.88
2023-05-14T21:19:25.056Z,98774.11
2023-05-14T21:21:53.070Z,98769.40
2023-05-14T21:24:21.054Z,98773.17
2023-05-14T21:26:49.053Z,98771.65
2023-05-14T21:29:17.168Z,98772.30
2023-05-14T21:31:45.108Z,98772.68
2023-05-14T21:34:13.059Z,98774.15
2023-05-14T21:36:41.068Z,98776.24
2023-05-14T21:39:08.968Z,98772.59
2023-05-14T21:41:36.877Z,98768.25
2023-05-14T21:44:04.933Z,98765.88
2023-05-14T21:46:32.979Z,98767.04
2023-05-14T21:49:00.966Z,98770.58
2023-05-14T21:51:28.970Z,98764.68
2023-05-14T21:53:56.894Z,98766.45
2023-05-14T21:56:24.802Z,98769.45
2023-05-14T21:58:55.216Z,98770.05
2023-05-14T22:01:23.266Z,98771.79
2023-05-14T22:03:51.353Z,98784.58
2023-05-14T22:06:19.503Z,98791.50
2023-05-14T22:08:47.419Z,98789.54
2023-05-14T22:11:15.381Z,98788.27
2023-05-14T22:13:43.319Z,98789.17
2023-05-14T22:16:13.702Z,98792.13
2023-05-14T22:18:42.666Z,98796.86
2023-05-14T22:21:10.705Z,98791.33
2023-05-14T22:23:38.637Z,98780.31
2023-05-14T22:26:06.629Z,98777.32
2023-05-14T22:28:34.671Z,98777.45
2023-05-14T22:31:04.199Z,98774.20
2023-05-14T22:33:33.294Z,98771.78
2023-05-14T22:36:01.269Z,98769.45
2023-05-14T22:38:29.194Z,98765.26
2023-05-14T22:40:57.056Z,98761.84
2023-05-14T22:43:25.040Z,98757.45
2023-05-14T22:45:53.211Z,98759.11
2023-05-14T22:48:21.144Z,98757.57
2023-05-14T22:50:49.032Z,98753.56
2023-05-14T22:53:17.076Z,98751.00
2023-05-14T22:55:45.115Z,98748.05
2023-05-14T22:58:13.008Z,98747.79
2023-05-14T23:00:40.994Z,98743.04
2023-05-14T23:03:08.976Z,98738.88
2023-05-14T23:05:36.878Z,98734.59
2023-05-14T23:08:05.744Z,98731.31
2023-05-14T23:10:35.529Z,98729.90
2023-05-14T23:13:04.166Z,98725.58
2023-05-14T23:15:33.246Z,98719.33
2023-05-14T23:18:01.331Z,98713.42
2023-05-14T23:20:29.301Z,98703.96
2023-05-14T23:22:57.207Z,98699.64
2023-05-14T23:25:25.415Z,98699.25
2023-05-14T23:27:53.574Z,98695.68
2023-05-14T23:30:21.966Z,98696.60
2023-05-14T23:32:50.053Z,98692.86
2023-05-14T23:35:18.309Z,98689.25
2023-05-14T23:37:49.446Z,98682.66
2023-05-14T23:40:17.825Z,98682.33
2023-05-14T23:42:46.463Z,98676.93
2023-05-14T23:45:14.415Z,98673.98
2023-05-14T23:47:42.656Z,98673.06
2023-05-14T23:50:10.848Z,98668.33
2023-05-14T23:52:38.772Z,98662.27
2023-05-14T23:55:06.980Z,98658.90
2023-05-14T23:57:35.487Z,98655.08
